Time;durP1;ratioP1;P1;durP2;ratioP2;P2;SDS_P1;SDS_P2;PMS_P1;PMS_P2;Temp;Humidity;BMP_temperature;BMP_pressure;BME280_temperature;BME280_humidity;BME280_pressure;Samples;Min_cycle;Max_cycle;Signal;HPM_P1;HPM_P2
2023/02/06 00:01:17;;;;;;;9.13;1.70;;;7.60;99.90;;;;;;4985274;28;20416;-73
2023/02/06 00:03:43;;;;;;;6.97;1.63;;;7.60;99.90;;;;;;4983066;28;20697;-73
2023/02/06 00:06:19;;;;;;;6.33;1.30;;;7.50;99.90;;;;;;4981294;28;20272;-73
2023/02/06 00:08:45;;;;;;;6.63;1.40;;;7.50;99.90;;;;;;4996167;28;20193;-73
2023/02/06 00:11:24;;;;;;;19.47;2.60;;;7.50;99.90;;;;;;4965528;28;20273;-73
2023/02/06 00:13:56;;;;;;;10.20;1.77;;;7.50;99.90;;;;;;4980508;28;20698;-73
2023/02/06 00:16:37;;;;;;;11.07;1.93;;;7.50;99.90;;;;;;4957455;28;20205;-73
2023/02/06 00:19:09;;;;;;;7.80;1.57;;;7.50;99.90;;;;;;4979580;28;20247;-73
2023/02/06 00:21:37;;;;;;;13.30;2.60;;;7.60;99.90;;;;;;4987397;28;20186;-73
2023/02/06 00:24:06;;;;;;;8.57;2.17;;;7.50;99.90;;;;;;4981717;28;20555;-74
2023/02/06 00:26:35;;;;;;;6.70;1.57;;;7.60;99.90;;;;;;4979133;28;20193;-73
2023/02/06 00:29:13;;;;;;;10.87;1.83;;;7.60;99.90;;;;;;4978428;28;20190;-73
2023/02/06 00:31:42;;;;;;;8.43;1.80;;;7.60;99.90;;;;;;4969018;28;20276;-73
2023/02/06 00:34:15;;;;;;;11.57;1.90;;;7.60;99.90;;;;;;4978091;28;20541;-73
2023/02/06 00:36:52;;;;;;;14.53;1.83;;;7.50;99.90;;;;;;4979068;28;20407;-73
2023/02/06 00:39:19;;;;;;;9.17;1.60;;;7.40;99.90;;;;;;4994714;28;20185;-73
2023/02/06 00:41:50;;;;;;;8.50;1.30;;;7.40;99.90;;;;;;4980213;28;20182;-73
2023/02/06 00:44:26;;;;;;;3.87;1.20;;;7.40;99.90;;;;;;4982401;28;20649;-73
2023/02/06 00:46:52;;;;;;;9.47;1.27;;;7.50;99.90;;;;;;4983898;28;20205;-73
2023/02/06 00:49:23;;;;;;;7.57;1.97;;;7.50;99.90;;;;;;4981494;28;20217;-73
2023/02/06 00:51:52;;;;;;;8.47;1.47;;;7.50;99.90;;;;;;4980623;28;20193;-73
2023/02/06 00:54:19;;;;;;;8.10;1.70;;;7.50;99.90;;;;;;4981524;28;20213;-73
2023/02/06 00:56:52;;;;;;;11.73;2.07;;;7.50;99.90;;;;;;4981931;28;20205;-73
2023/02/06 00:59:27;;;;;;;11.40;1.97;;;7.50;99.90;;;;;;4982697;28;20205;-73
2023/02/06 01:01:55;;;;;;;6.23;1.60;;;7.40;99.90;;;;;;4982846;28;20594;-73
2023/02/06 01:04:23;;;;;;;10.07;1.60;;;7.30;99.90;;;;;;4980572;28;20180;-73
2023/02/06 01:06:52;;;;;;;6.47;1.20;;;7.30;99.90;;;;;;4985346;28;20193;-73
2023/02/06 01:09:32;;;;;;;7.73;1.30;;;7.30;99.90;;;;;;4986518;28;20185;-73
2023/02/06 01:12:03;;;;;;;10.17;1.70;;;7.20;99.90;;;;;;4980866;28;20185;-73
2023/02/06 01:14:49;;;;;;;8.57;1.50;;;7.30;99.90;;;;;;4987092;28;20284;-73
2023/02/06 01:17:21;;;;;;;6.63;1.17;;;7.20;99.90;;;;;;4985868;28;20642;-73
2023/02/06 01:20:05;;;;;;;10.50;1.57;;;7.20;99.90;;;;;;4986893;28;20826;-73
2023/02/06 01:22:35;;;;;;;7.67;1.33;;;7.20;99.90;;;;;;4984479;28;20186;-73
2023/02/06 01:25:10;;;;;;;6.00;1.23;;;7.20;99.90;;;;;;4985580;28;20185;-73
2023/02/06 01:27:38;;;;;;;3.77;0.90;;;7.20;99.90;;;;;;4984173;28;20236;-73
2023/02/06 01:30:10;;;;;;;6.93;1.40;;;7.20;99.90;;;;;;4986470;28;20224;-73
2023/02/06 01:32:46;;;;;;;3.93;1.10;;;7.20;99.90;;;;;;4980356;28;20209;-73
2023/02/06 01:35:27;;;;;;;6.57;1.27;;;7.20;99.90;;;;;;4986880;28;20217;-73
2023/02/06 01:37:58;;;;;;;7.33;1.23;;;7.20;99.90;;;;;;4986254;28;20228;-73
2023/02/06 01:40:31;;;;;;;3.80;1.10;;;7.20;99.90;;;;;;4982491;28;20528;-73
2023/02/06 01:42:57;;;;;;;10.23;2.07;;;7.30;99.90;;;;;;4974626;28;21692;-73
2023/02/06 01:45:39;;;;;;;9.33;1.40;;;7.30;99.90;;;;;;4982911;28;20529;-73
2023/02/06 01:48:19;;;;;;;5.77;1.70;;;7.30;99.90;;;;;;4985241;28;20657;-73
2023/02/06 01:50:55;;;;;;;6.47;1.63;;;7.30;99.90;;;;;;4982059;28;20273;-73
2023/02/06 01:53:32;;;;;;;8.13;1.53;;;7.30;99.90;;;;;;4984241;28;20264;-73
2023/02/06 01:56:06;;;;;;;9.27;2.37;;;7.30;99.90;;;;;;4982483;28;20271;-73
2023/02/06 01:58:48;;;;;;;7.33;1.40;;;7.30;99.90;;;;;;4981623;28;20182;-73
2023/02/06 02:01:22;;;;;;;8.33;1.43;;;7.40;99.90;;;;;;4981837;28;20279;-73
2023/02/06 02:03:58;;;;;;;12.93;1.90;;;7.40;99.90;;;;;;4986335;28;20224;-73
2023/02/06 02:06:33;;;;;;;11.77;2.10;;;7.40;99.90;;;;;;4981931;28;20630;-73
2023/02/06 02:09:03;;;;;;;12.80;2.00;;;7.40;99.90;;;;;;4984090;28;20189;-73
2023/02/06 02:11:40;;;;;;;6.03;1.23;;;7.30;99.90;;;;;;4968259;28;20464;-73
2023/02/06 02:14:11;;;;;;;4.30;1.47;;;7.20;99.90;;;;;;4971478;28;20318;-73
2023/02/06 02:17:10;;;;;;;7.17;1.90;;;7.00;99.90;;;;;;4985752;28;21005;-73
2023/02/06 02:20:12;;;;;;;4.50;1.13;;;7.00;99.90;;;;;;4979017;28;20215;-73
2023/02/06 02:22:55;;;;;;;9.50;1.60;;;6.90;99.90;;;;;;4975783;28;20942;-73
2023/02/06 02:26:23;;;;;;;8.57;1.67;;;6.90;99.90;;;;;;4966740;28;20613;-73
2023/02/06 02:29:28;;;;;;;10.33;1.50;;;6.90;99.90;;;;;;4962894;28;20869;-73
2023/02/06 02:32:29;;;;;;;9.60;1.40;;;7.00;99.90;;;;;;4992793;28;20193;-73
2023/02/06 02:35:32;;;;;;;9.37;1.73;;;7.00;99.90;;;;;;4979814;28;20659;-73
2023/02/06 02:38:05;;;;;;;9.80;1.83;;;7.00;99.90;;;;;;4985935;28;20244;-72
2023/02/06 02:41:12;;;;;;;7.13;1.80;;;7.10;99.90;;;;;;4999183;28;20194;-73
2023/02/06 02:44:04;;;;;;;;;;;;;;;;;;;;;
2023/02/06 02:46:49;;;;;;;18.17;2.00;;;7.10;99.90;;;;;;4984370;28;20280;-73
2023/02/06 02:49:27;;;;;;;11.47;2.13;;;7.20;99.90;;;;;;4980943;28;20563;-73
2023/02/06 02:52:01;;;;;;;11.60;2.00;;;7.20;99.90;;;;;;4984734;28;20201;-73
2023/02/06 02:54:30;;;;;;;7.50;1.50;;;7.20;99.90;;;;;;4982194;28;20248;-73
2023/02/06 02:57:13;;;;;;;6.80;2.07;;;7.20;99.90;;;;;;4984629;28;20633;-73
2023/02/06 02:59:52;;;;;;;10.50;2.07;;;7.20;99.90;;;;;;4981532;28;20243;-73
2023/02/06 03:02:36;;;;;;;11.73;2.33;;;7.20;99.90;;;;;;4981299;28;20186;-73
2023/02/06 03:05:13;;;;;;;13.00;2.47;;;7.20;99.90;;;;;;4977528;28;20296;-73
2023/02/06 03:08:30;;;;;;;9.97;2.00;;;7.20;99.90;;;;;;4978010;28;20205;-73
2023/02/06 03:11:16;;;;;;;7.97;1.70;;;7.20;99.90;;;;;;4972303;28;20614;-73
2023/02/06 03:14:01;;;;;;;8.67;1.97;;;7.10;99.90;;;;;;4982017;28;20659;-73
2023/02/06 03:16:40;;;;;;;11.73;2.30;;;7.10;99.90;;;;;;4978225;28;20182;-73
2023/02/06 03:19:31;;;;;;;12.93;2.20;;;7.10;99.90;;;;;;4980152;28;20663;-73
2023/02/06 03:21:57;;;;;;;10.47;2.00;;;7.10;99.90;;;;;;4980655;28;20193;-73
2023/02/06 03:24:31;;;;;;;10.50;1.77;;;7.10;99.90;;;;;;4998488;28;20268;-73
2023/02/06 03:27:10;;;;;;;11.73;2.00;;;7.10;99.90;;;;;;4984872;28;20272;-73
2023/02/06 03:29:49;;;;;;;13.53;2.80;;;7.10;99.90;;;;;;4983251;28;20189;-73
2023/02/06 03:32:41;;;;;;;15.37;2.70;;;7.10;99.90;;;;;;4981702;28;20659;-73
2023/02/06 03:35:44;;;;;;;12.37;2.33;;;7.20;99.90;;;;;;4983183;28;20230;-73
2023/02/06 03:38:15;;;;;;;9.27;2.03;;;7.20;99.90;;;;;;4967777;28;20567;-73
2023/02/06 03:40:47;;;;;;;11.77;2.80;;;7.20;99.90;;;;;;4981998;28;20898;-73
2023/02/06 03:43:27;;;;;;;9.10;2.53;;;7.20;99.90;;;;;;4993398;28;20185;-73
2023/02/06 03:46:05;;;;;;;12.17;3.00;;;7.20;99.90;;;;;;4980375;28;20305;-73
2023/02/06 03:48:46;;;;;;;16.83;2.97;;;7.30;99.90;;;;;;4980586;28;20652;-73
2023/02/06 03:51:38;;;;;;;11.93;3.10;;;7.30;99.90;;;;;;4974040;28;20199;-73
2023/02/06 03:54:06;;;;;;;14.57;3.30;;;7.30;99.90;;;;;;4998139;28;20201;-73
2023/02/06 03:57:10;;;;;;;20.20;3.47;;;7.30;99.90;;;;;;4983587;28;20220;-73
2023/02/06 03:59:36;;;;;;;13.47;3.17;;;7.30;99.90;;;;;;4977920;28;20199;-73
2023/02/06 04:02:14;;;;;;;20.90;4.00;;;7.30;99.90;;;;;;4977555;28;20232;-73
2023/02/06 04:04:44;;;;;;;16.83;2.90;;;7.30;99.90;;;;;;4981632;28;20216;-73
2023/02/06 04:07:43;;;;;;;18.40;4.13;;;7.30;99.90;;;;;;4982155;28;20205;-73
2023/02/06 04:10:09;;;;;;;12.47;3.40;;;7.30;99.90;;;;;;4967897;28;20202;-73
2023/02/06 04:12:41;;;;;;;16.17;3.17;;;7.30;99.90;;;;;;4985379;28;20182;-73
2023/02/06 04:15:11;;;;;;;11.30;3.70;;;7.40;99.90;;;;;;4981431;28;20197;-73
2023/02/06 04:17:42;;;;;;;12.73;3.37;;;7.40;99.90;;;;;;4982629;28;20233;-73
2023/02/06 04:20:13;;;;;;;18.40;3.80;;;7.40;99.90;;;;;;4998416;28;20584;-73
2023/02/06 04:22:41;;;;;;;21.20;3.97;;;7.40;99.90;;;;;;4980261;28;20196;-73
2023/02/06 04:25:11;;;;;;;14.53;3.87;;;7.40;99.90;;;;;;4980507;28;20178;-73
2023/02/06 04:27:40;;;;;;;13.93;3.13;;;7.50;99.90;;;;;;4981126;28;20201;-73
2023/02/06 04:30:10;;;;;;;14.73;4.00;;;7.50;99.90;;;;;;4981151;28;20276;-73
2023/02/06 04:32:44;;;;;;;13.40;4.23;;;7.50;99.90;;;;;;4982827;28;20235;-73
2023/02/06 04:35:17;;;;;;;14.20;4.20;;;7.50;99.90;;;;;;4981172;28;20187;-73
2023/02/06 07:21:12;;;;;;;7.77;2.07;;;7.90;99.90;;;;;;4982668;28;20229;-73
2023/02/06 07:23:39;;;;;;;7.57;2.10;;;7.90;99.90;;;;;;4959186;28;20182;-73
2023/02/06 07:26:05;;;;;;;5.77;1.67;;;7.90;99.90;;;;;;4980958;28;20193;-73
2023/02/06 07:28:36;;;;;;;8.47;3.40;;;7.90;99.90;;;;;;4977681;28;20185;-73
2023/02/06 07:31:06;;;;;;;9.70;1.87;;;7.90;99.90;;;;;;4981882;28;20602;-73
2023/02/06 07:33:34;;;;;;;9.03;2.10;;;7.90;99.90;;;;;;4965254;28;20173;-73
2023/02/06 07:36:11;;;;;;;11.27;1.60;;;7.90;99.90;;;;;;4967875;28;20220;-73
2023/02/06 07:38:38;;;;;;;9.37;1.90;;;7.90;99.90;;;;;;4976890;28;20220;-73
2023/02/06 07:41:06;;;;;;;13.57;1.80;;;8.00;99.90;;;;;;4973627;28;20237;-73
2023/02/06 07:43:37;;;;;;;11.67;2.17;;;8.00;99.90;;;;;;4977849;28;20189;-74
2023/02/06 07:46:05;;;;;;;9.20;1.97;;;8.00;99.90;;;;;;4976117;28;20189;-73
2023/02/06 07:48:41;;;;;;;8.27;2.10;;;8.00;99.90;;;;;;4979050;28;20196;-73
2023/02/06 07:51:09;;;;;;;5.63;2.40;;;8.10;99.90;;;;;;4979983;28;20810;-73
2023/02/06 07:53:37;;;;;;;12.90;2.10;;;8.20;99.90;;;;;;4977451;28;20186;-72
2023/02/06 07:56:17;;;;;;;5.10;1.80;;;8.20;99.90;;;;;;4982807;28;20194;-74
2023/02/06 07:58:53;;;;;;;7.17;1.80;;;8.20;99.90;;;;;;4977407;28;20287;-74
2023/02/06 08:01:22;;;;;;;8.40;2.20;;;8.30;99.90;;;;;;4976226;28;20229;-74
2023/02/06 08:04:08;;;;;;;;;;;;;;;;;;;;;
2023/02/06 08:06:35;;;;;;;11.90;1.90;;;8.30;99.90;;;;;;4972626;28;20607;-74
2023/02/06 08:09:02;;;;;;;5.93;1.37;;;8.30;99.90;;;;;;4986146;28;20190;-74
2023/02/06 08:11:34;;;;;;;8.03;1.50;;;8.30;99.90;;;;;;4962319;28;20192;-74
2023/02/06 08:14:06;;;;;;;7.23;1.73;;;8.30;99.90;;;;;;4981056;28;20192;-72
2023/02/06 08:16:38;;;;;;;5.30;1.40;;;8.40;99.90;;;;;;4977644;28;20186;-74
2023/02/06 08:19:11;;;;;;;5.13;1.10;;;8.30;99.90;;;;;;4973416;28;20181;-74
2023/02/06 08:21:37;;;;;;;3.77;1.00;;;8.20;99.90;;;;;;4975302;28;20185;-74
2023/02/06 08:24:10;;;;;;;6.23;1.17;;;8.10;99.90;;;;;;4978282;28;20216;-74
2023/02/06 08:26:37;;;;;;;9.13;1.57;;;8.10;99.90;;;;;;4980172;28;20268;-74
2023/02/06 08:29:08;;;;;;;8.83;1.20;;;8.00;99.90;;;;;;4979180;28;20236;-74
2023/02/06 08:31:38;;;;;;;10.63;1.33;;;8.00;99.90;;;;;;4961981;28;20319;-74
2023/02/06 08:34:08;;;;;;;8.53;1.60;;;7.90;99.90;;;;;;4974887;28;20188;-72
2023/02/06 08:36:41;;;;;;;5.07;1.30;;;7.90;99.90;;;;;;4974764;28;20295;-74
2023/02/06 08:39:14;;;;;;;4.50;1.10;;;7.80;99.90;;;;;;4975314;28;20221;-74
2023/02/06 08:41:43;;;;;;;7.33;1.30;;;7.70;99.90;;;;;;4984168;28;20526;-74
2023/02/06 08:44:17;;;;;;;6.07;1.40;;;7.70;99.90;;;;;;4977972;28;20175;-74
2023/02/06 08:46:47;;;;;;;7.13;1.60;;;7.70;99.90;;;;;;4978054;28;20275;-74
2023/02/06 08:49:22;;;;;;;3.17;0.80;;;7.70;99.90;;;;;;4981462;28;20197;-72
2023/02/06 08:51:50;;;;;;;1.77;1.00;;;7.70;99.90;;;;;;4978596;28;20197;-74
2023/02/06 08:54:28;;;;;;;3.43;0.80;;;7.70;99.90;;;;;;4981815;28;20272;-74
2023/02/06 08:57:01;;;;;;;2.87;1.20;;;7.60;99.90;;;;;;4995011;28;20244;-74
2023/02/06 08:59:31;;;;;;;2.93;1.00;;;7.70;99.90;;;;;;4977249;28;20220;-74
2023/02/06 09:01:59;;;;;;;2.63;0.97;;;7.60;99.90;;;;;;4960252;28;20194;-74
2023/02/06 09:04:36;;;;;;;2.30;1.00;;;7.60;99.90;;;;;;4973103;28;20221;-74
2023/02/06 09:07:03;;;;;;;2.67;1.10;;;7.60;99.90;;;;;;4988977;28;20184;-74
2023/02/06 09:09:31;;;;;;;3.93;1.47;;;7.60;99.90;;;;;;4987263;28;20194;-71
2023/02/06 09:12:02;;;;;;;6.87;1.67;;;7.70;99.90;;;;;;4982460;28;20747;-72
2023/02/06 09:14:34;;;;;;;7.50;1.43;;;7.70;99.90;;;;;;4980497;28;20846;-74
2023/02/06 09:17:04;;;;;;;8.13;1.80;;;7.80;99.90;;;;;;4980637;28;20205;-74
2023/02/06 09:19:35;;;;;;;11.43;2.10;;;7.80;99.90;;;;;;4975395;28;20232;-74
2023/02/06 09:22:05;;;;;;;10.37;2.13;;;7.80;99.90;;;;;;4980851;28;20469;-74
2023/02/06 09:24:32;;;;;;;8.83;2.00;;;7.90;99.90;;;;;;4982611;28;20193;-74
2023/02/06 09:27:02;;;;;;;8.97;1.83;;;8.00;99.90;;;;;;4984618;28;20717;-74
2023/02/06 09:29:31;;;;;;;12.77;1.83;;;8.00;99.90;;;;;;4984368;28;20201;-72
2023/02/06 09:31:59;;;;;;;10.83;2.60;;;8.00;99.90;;;;;;4982548;28;20544;-72
2023/02/06 09:34:29;;;;;;;6.83;1.80;;;8.00;99.90;;;;;;4984079;28;20459;-72
2023/02/06 09:37:01;;;;;;;5.97;2.10;;;8.10;99.90;;;;;;4984531;28;20775;-72
2023/02/06 09:39:39;;;;;;;7.40;1.80;;;8.20;99.90;;;;;;4980910;28;20213;-72
2023/02/06 09:42:36;;;;;;;5.17;1.80;;;8.10;99.90;;;;;;4985173;28;20192;-72
2023/02/06 09:45:19;;;;;;;6.43;1.90;;;8.10;99.90;;;;;;4974188;28;20212;-74
2023/02/06 09:48:35;;;;;;;8.27;1.80;;;8.20;99.90;;;;;;4989475;28;20858;-74
2023/02/06 09:51:38;;;;;;;9.07;1.90;;;8.20;99.90;;;;;;4910661;29;20188;-74
2023/02/06 09:54:20;;;;;;;3.77;1.90;;;8.20;99.90;;;;;;4980429;28;20204;-74
2023/02/06 09:56:58;;;;;;;6.40;1.60;;;8.20;99.90;;;;;;4980938;28;20300;-74
2023/02/06 09:59:49;;;;;;;6.90;1.97;;;8.30;99.90;;;;;;4983854;28;20177;-74
2023/02/06 10:02:53;;;;;;;4.10;1.80;;;8.30;99.90;;;;;;4982035;28;20194;-74
2023/02/06 10:05:43;;;;;;;5.83;2.40;;;8.40;99.90;;;;;;4984983;28;20190;-74
2023/02/06 10:08:37;;;;;;;5.40;2.03;;;8.30;99.90;;;;;;4982841;28;20771;-74
2023/02/06 10:11:32;;;;;;;5.73;1.73;;;8.30;99.90;;;;;;4976252;28;20191;-74
2023/02/06 10:14:21;;;;;;;4.53;1.50;;;8.30;99.90;;;;;;4998316;28;20190;-74
2023/02/06 10:17:16;;;;;;;4.63;2.00;;;8.20;99.90;;;;;;4979702;28;20213;-74
2023/02/06 10:20:12;;;;;;;13.43;2.50;;;8.30;99.90;;;;;;4978130;28;20205;-71
2023/02/06 10:23:28;;;;;;;7.73;2.10;;;8.30;99.90;;;;;;4981877;28;20193;-74
2023/02/06 10:26:25;;;;;;;5.43;2.17;;;8.40;99.90;;;;;;4975111;28;20173;-74
2023/02/06 10:28:58;;;;;;;7.33;2.13;;;8.30;99.90;;;;;;4986793;28;20879;-74
2023/02/06 10:31:43;;;;;;;8.80;2.10;;;8.30;99.90;;;;;;4982109;28;20198;-74
2023/02/06 10:34:27;;;;;;;7.33;2.20;;;8.30;99.90;;;;;;4983148;28;20186;-74
2023/02/06 10:37:28;;;;;;;4.20;1.70;;;8.30;99.90;;;;;;4966912;28;20252;-74
2023/02/06 10:40:37;;;;;;;8.87;2.20;;;8.30;99.90;;;;;;4977486;28;20228;-74
2023/02/06 10:44:00;;;;;;;7.17;2.50;;;8.30;99.90;;;;;;4996250;28;20197;-74
2023/02/06 10:46:52;;;;;;;6.80;2.30;;;8.30;99.90;;;;;;4975314;28;20302;-74
2023/02/06 10:49:52;;;;;;;3.77;1.67;;;8.30;99.90;;;;;;4978167;28;20879;-74
2023/02/06 10:52:36;;;;;;;4.93;2.30;;;8.40;99.90;;;;;;4976208;28;20882;-74
2023/02/06 10:55:27;;;;;;;8.60;2.27;;;8.40;99.90;;;;;;4983799;28;20185;-74
2023/02/06 10:58:26;;;;;;;5.27;1.90;;;8.30;99.90;;;;;;4983916;28;20245;-74
2023/02/06 11:01:01;;;;;;;6.73;2.10;;;8.40;99.90;;;;;;4956413;28;20707;-74
2023/02/06 11:03:36;;;;;;;7.97;2.47;;;8.40;99.90;;;;;;4986726;28;20715;-74
2023/02/06 11:06:05;;;;;;;4.97;2.17;;;8.80;99.90;;;;;;4979925;28;20336;-74
2023/02/06 11:08:44;;;;;;;4.60;2.33;;;8.90;99.90;;;;;;4978482;28;20224;-74
2023/02/06 11:11:35;;;;;;;6.17;2.23;;;9.00;99.90;;;;;;4998424;28;20205;-74
2023/02/06 11:14:23;;;;;;;4.27;2.43;;;9.20;99.90;;;;;;4983546;28;20543;-72
2023/02/06 11:16:52;;;;;;;4.23;2.20;;;9.10;99.90;;;;;;4981878;28;20189;-74
2023/02/06 11:19:43;;;;;;;6.50;2.77;;;9.00;99.90;;;;;;4984167;28;20192;-72
2023/02/06 11:22:25;;;;;;;8.43;2.37;;;9.20;99.90;;;;;;4986668;28;20303;-75
2023/02/06 11:25:18;;;;;;;6.20;2.27;;;9.10;99.90;;;;;;4981544;28;20762;-72
2023/02/06 11:27:45;;;;;;;7.27;2.37;;;9.00;99.90;;;;;;4984264;28;20194;-72
2023/02/06 11:30:32;;;;;;;4.37;2.10;;;9.00;99.90;;;;;;4981138;28;20800;-72
2023/02/06 11:33:26;;;;;;;7.37;2.60;;;8.90;99.90;;;;;;4975275;28;20478;-72
2023/02/06 11:36:04;;;;;;;7.13;2.67;;;8.80;99.90;;;;;;4982631;28;20204;-72
2023/02/06 11:38:32;;;;;;;6.00;2.33;;;8.70;99.90;;;;;;4974851;28;20305;-72
2023/02/06 11:41:05;;;;;;;5.23;2.20;;;8.70;99.90;;;;;;4982635;28;20197;-72
2023/02/06 11:44:00;;;;;;;9.07;2.57;;;8.60;99.90;;;;;;4978082;28;20190;-72
2023/02/06 11:46:31;;;;;;;9.43;2.50;;;8.50;99.90;;;;;;4977745;28;20244;-75
2023/02/06 11:49:30;;;;;;;4.27;2.13;;;8.50;99.90;;;;;;4978843;28;20197;-75
2023/02/06 11:52:03;;;;;;;5.53;2.50;;;8.30;99.90;;;;;;4978606;28;20190;-75
2023/02/06 11:54:34;;;;;;;7.43;2.57;;;8.10;99.90;;;;;;4984268;28;20682;-75
2023/02/06 11:57:22;;;;;;;9.23;2.93;;;7.90;99.90;;;;;;4979574;28;20353;-74
2023/02/06 12:00:04;;;;;;;11.53;2.90;;;7.80;99.90;;;;;;4976579;28;20193;-74
2023/02/06 12:02:38;;;;;;;8.87;2.83;;;7.60;99.90;;;;;;4981342;28;20573;-74
2023/02/06 12:05:18;;;;;;;7.43;3.10;;;7.40;99.90;;;;;;4979964;28;20188;-74
2023/02/06 12:08:07;;;;;;;10.43;3.37;;;7.30;99.90;;;;;;4978343;28;20193;-72
2023/02/06 12:10:45;;;;;;;9.83;3.80;;;7.30;99.90;;;;;;4973963;28;20264;-74
2023/02/06 12:13:26;;;;;;;5.30;3.40;;;7.30;99.90;;;;;;4975385;28;20186;-74
2023/02/06 12:15:59;;;;;;;9.13;3.93;;;7.30;99.90;;;;;;4984079;28;20197;-74
2023/02/06 12:18:39;;;;;;;7.03;3.20;;;7.30;99.90;;;;;;4978206;28;20221;-74
2023/02/06 12:21:30;;;;;;;6.80;2.80;;;7.40;99.90;;;;;;4977083;28;20847;-74
2023/02/06 12:24:13;;;;;;;9.70;3.37;;;7.40;99.90;;;;;;4986776;28;20205;-74
2023/02/06 12:26:45;;;;;;;14.90;4.10;;;7.40;99.90;;;;;;4978308;28;20213;-74
2023/02/06 12:30:05;;;;;;;13.80;3.63;;;7.30;99.90;;;;;;4979037;28;20195;-74
2023/02/06 12:32:44;;;;;;;7.67;3.30;;;7.30;99.90;;;;;;4977598;28;20198;-74
2023/02/06 12:35:46;;;;;;;7.73;3.57;;;7.30;99.90;;;;;;4981099;28;21088;-74
2023/02/06 12:38:39;;;;;;;10.37;3.53;;;7.20;99.90;;;;;;4988316;28;20574;-74
2023/02/06 12:41:42;;;;;;;8.50;3.33;;;7.20;99.90;;;;;;4990220;28;20228;-74
2023/02/06 12:44:34;;;;;;;9.27;3.57;;;7.20;99.90;;;;;;4980717;28;20252;-74
2023/02/06 12:47:15;;;;;;;3.97;2.30;;;7.50;99.90;;;;;;4981574;28;20209;-74
2023/02/06 12:50:17;;;;;;;3.03;2.30;;;7.60;99.90;;;;;;4978346;28;20264;-74
2023/02/06 12:52:57;;;;;;;3.67;2.33;;;7.90;99.90;;;;;;4974491;28;20196;-74
2023/02/06 12:56:17;;;;;;;4.53;2.10;;;7.70;99.90;;;;;;4981416;28;20308;-74
2023/02/06 12:58:43;;;;;;;4.73;2.10;;;7.70;99.90;;;;;;4971688;28;20741;-72
2023/02/06 13:01:40;;;;;;;4.43;2.13;;;7.60;99.90;;;;;;4971989;28;20194;-72
2023/02/06 13:04:22;;;;;;;5.00;2.00;;;7.40;99.90;;;;;;4980401;28;20275;-74
2023/02/06 13:07:16;;;;;;;3.90;2.00;;;7.30;99.90;;;;;;4983080;28;20243;-74
2023/02/06 13:09:59;;;;;;;2.10;1.90;;;7.30;99.90;;;;;;4979927;28;20217;-74
2023/02/06 13:12:31;;;;;;;2.87;2.20;;;7.50;99.90;;;;;;4980965;28;20880;-75
2023/02/06 13:15:05;;;;;;;4.90;2.20;;;7.60;99.90;;;;;;4964427;28;20758;-74
2023/02/06 13:17:38;;;;;;;2.83;2.10;;;7.50;99.90;;;;;;4957120;28;20209;-74
2023/02/06 13:20:24;;;;;;;3.67;1.93;;;7.50;99.90;;;;;;4979647;28;20186;-74
2023/02/06 13:23:11;;;;;;;4.87;2.50;;;7.60;99.90;;;;;;4978637;28;20197;-74
2023/02/06 13:25:39;;;;;;;2.50;2.20;;;7.70;99.90;;;;;;4975962;28;20193;-74
2023/02/06 13:28:20;;;;;;;19.97;2.90;;;7.80;99.90;;;;;;4982732;28;20252;-74
2023/02/06 13:31:20;;;;;;;18.10;12.47;;;7.80;99.90;;;;;;4979714;28;20212;-74
2023/02/06 13:34:05;;;;;;;5.83;2.70;;;7.90;99.90;;;;;;4980219;28;20194;-74
2023/02/06 13:36:49;;;;;;;3.77;2.53;;;7.80;99.90;;;;;;4981845;28;20197;-74
2023/02/06 13:39:31;;;;;;;6.00;2.63;;;7.80;99.90;;;;;;4982918;28;20194;-72
2023/02/06 13:42:39;;;;;;;4.27;2.43;;;7.80;99.90;;;;;;4981517;28;20181;-74
2023/02/06 13:45:22;;;;;;;4.53;2.50;;;7.80;99.90;;;;;;4979197;28;20185;-72
2023/02/06 13:48:30;;;;;;;6.10;2.87;;;7.90;99.90;;;;;;4983782;28;20197;-75
2023/02/06 13:51:31;;;;;;;6.60;2.97;;;7.90;99.90;;;;;;4981972;28;20197;-74
2023/02/06 13:54:51;;;;;;;9.77;3.60;;;7.80;99.90;;;;;;4991431;28;20204;-74
2023/02/06 13:57:49;;;;;;;9.63;3.50;;;7.80;99.90;;;;;;4994985;28;20614;-74
2023/02/06 14:00:29;;;;;;;15.30;6.43;;;7.80;99.90;;;;;;4994478;28;20205;-74
2023/02/06 14:03:24;;;;;;;9.30;3.70;;;7.70;99.90;;;;;;4975387;28;20212;-72
2023/02/06 14:06:22;;;;;;;5.73;3.47;;;7.70;99.90;;;;;;4980574;28;20202;-74
2023/02/06 14:10:04;;;;;;;8.40;3.90;;;7.60;99.90;;;;;;4978785;28;20198;-74
2023/02/06 14:13:00;;;;;;;9.00;3.67;;;7.40;99.90;;;;;;4927559;28;20299;-74
2023/02/06 14:16:02;;;;;;;4.70;3.20;;;7.40;99.90;;;;;;4984579;28;20200;-74
2023/02/06 14:19:19;;;;;;;4.80;3.00;;;7.30;99.90;;;;;;4981805;28;20295;-74
2023/02/06 14:21:57;;;;;;;5.97;2.90;;;7.00;99.90;;;;;;4981417;28;20539;-74
2023/02/06 14:24:33;;;;;;;6.27;2.80;;;6.80;99.90;;;;;;4967695;28;20205;-74
2023/02/06 14:27:18;;;;;;;5.30;3.00;;;6.70;99.90;;;;;;4982398;28;20201;-74
2023/02/06 14:30:43;;;;;;;4.47;3.00;;;6.70;99.90;;;;;;4983280;28;20236;-74
2023/02/06 14:33:49;;;;;;;7.50;3.30;;;6.70;99.90;;;;;;4998725;28;20236;-74
2023/02/06 14:37:03;;;;;;;4.67;3.23;;;6.80;99.90;;;;;;4982338;28;20907;-74
2023/02/06 14:39:53;;;;;;;8.27;3.50;;;6.60;99.90;;;;;;4974775;28;20291;-71
2023/02/06 14:42:43;;;;;;;5.13;3.17;;;6.50;99.90;;;;;;4977844;28;20196;-74
2023/02/06 14:45:35;;;;;;;6.83;3.40;;;6.50;99.90;;;;;;4976557;28;20213;-74
2023/02/06 14:48:30;;;;;;;7.73;4.03;;;6.50;99.90;;;;;;4985570;28;20280;-74
2023/02/06 14:50:58;;;;;;;5.97;3.70;;;6.40;99.90;;;;;;4976762;28;20672;-74
2023/02/06 14:53:40;;;;;;;6.80;3.73;;;6.40;99.90;;;;;;4979165;28;20193;-74
2023/02/06 14:56:19;;;;;;;4.97;3.47;;;6.50;99.90;;;;;;4980367;28;20189;-74
2023/02/06 14:58:50;;;;;;;6.30;3.50;;;6.50;99.90;;;;;;4983452;28;20711;-74
2023/02/06 15:01:17;;;;;;;7.87;4.07;;;6.50;99.90;;;;;;4981114;28;20272;-74
2023/02/06 15:04:12;;;;;;;5.70;4.17;;;6.50;99.90;;;;;;4981862;28;20696;-74
2023/02/06 15:06:49;;;;;;;6.13;3.40;;;6.50;99.90;;;;;;4997977;28;20189;-74
2023/02/06 15:09:37;;;;;;;10.13;4.00;;;6.60;99.90;;;;;;4981890;28;20228;-74
2023/02/06 15:12:23;;;;;;;5.63;3.93;;;6.60;99.90;;;;;;4986811;28;20192;-74
2023/02/06 15:15:21;;;;;;;9.83;3.40;;;6.60;99.90;;;;;;4977428;28;20248;-74
2023/02/06 15:18:07;;;;;;;5.60;3.50;;;6.60;99.90;;;;;;4977014;28;20643;-74
2023/02/06 15:20:43;;;;;;;7.00;3.77;;;6.60;99.90;;;;;;4983228;28;20209;-74
2023/02/06 15:23:51;;;;;;;5.20;3.43;;;6.50;99.90;;;;;;4973802;28;20186;-71
2023/02/06 15:26:59;;;;;;;8.87;3.33;;;6.50;99.90;;;;;;4977963;28;20817;-74
2023/02/06 15:29:31;;;;;;;4.57;2.90;;;6.50;99.90;;;;;;4980425;28;20598;-74
2023/02/06 15:32:32;;;;;;;3.47;2.90;;;6.50;99.90;;;;;;4982789;28;20609;-74
2023/02/06 15:35:04;;;;;;;3.93;3.40;;;6.50;99.90;;;;;;4997298;28;20189;-74
2023/02/06 15:37:35;;;;;;;5.60;3.40;;;6.40;99.90;;;;;;4979841;28;20712;-74
2023/02/06 15:40:36;;;;;;;6.97;3.50;;;6.40;99.90;;;;;;4983370;28;20750;-74
2023/02/06 15:43:06;;;;;;;7.87;3.40;;;6.40;99.90;;;;;;4983118;28;20216;-74
2023/02/06 15:45:40;;;;;;;5.03;2.70;;;6.40;99.90;;;;;;4982061;28;20495;-74
2023/02/06 15:48:32;;;;;;;5.17;2.30;;;6.30;99.90;;;;;;4981513;28;20198;-74
2023/02/06 15:51:18;;;;;;;7.33;1.53;;;6.10;99.90;;;;;;4985206;28;20231;-74
2023/02/06 15:54:21;;;;;;;2.57;1.37;;;6.00;99.90;;;;;;4981380;28;20225;-74
2023/02/06 15:57:17;;;;;;;3.10;1.77;;;5.80;99.90;;;;;;4983807;28;20254;-73
2023/02/06 15:59:51;;;;;;;2.37;1.50;;;5.80;99.90;;;;;;4982017;28;20193;-74
2023/02/06 16:02:39;;;;;;;2.13;1.47;;;5.70;99.90;;;;;;4964693;28;20186;-73
2023/02/06 16:05:26;;;;;;;3.67;1.63;;;5.60;99.90;;;;;;4984874;28;20204;-74
2023/02/06 16:07:56;;;;;;;2.17;1.70;;;5.40;99.90;;;;;;4999026;28;20207;-74
2023/02/06 16:10:37;;;;;;;4.73;1.50;;;5.30;99.90;;;;;;4983048;28;20547;-74
2023/02/06 16:13:29;;;;;;;3.43;1.63;;;5.20;99.90;;;;;;4981210;28;20630;-74
2023/02/06 16:16:21;;;;;;;2.37;1.50;;;5.00;99.90;;;;;;4981540;28;20327;-73
2023/02/06 16:18:56;;;;;;;3.47;1.57;;;5.00;99.90;;;;;;4982805;28;20229;-74
2023/02/06 16:21:38;;;;;;;3.67;1.50;;;5.00;99.90;;;;;;4972706;28;20276;-73
2023/02/06 16:24:18;;;;;;;2.50;1.40;;;5.00;99.90;;;;;;4989677;28;20194;-73
2023/02/06 16:26:52;;;;;;;1.60;1.27;;;5.10;99.90;;;;;;4982971;28;20213;-73
2023/02/06 16:29:56;;;;;;;2.47;1.43;;;5.10;99.90;;;;;;4980764;28;20225;-73
2023/02/06 16:32:34;;;;;;;2.43;1.30;;;5.10;99.90;;;;;;4979039;28;20336;-73
2023/02/06 16:35:00;;;;;;;6.57;1.63;;;5.10;99.90;;;;;;4985044;28;20205;-73
2023/02/06 16:37:39;;;;;;;2.40;1.60;;;5.10;99.90;;;;;;4981629;28;20305;-73
2023/02/06 16:40:08;;;;;;;6.77;1.80;;;5.10;99.90;;;;;;4981183;28;20268;-74
2023/02/06 16:42:41;;;;;;;5.03;1.90;;;5.10;99.90;;;;;;4983689;28;20193;-73
2023/02/06 16:45:25;;;;;;;2.00;1.50;;;5.20;99.90;;;;;;4974749;28;20189;-74
2023/02/06 16:47:56;;;;;;;4.13;1.70;;;5.10;99.90;;;;;;4981782;28;20220;-73
2023/02/06 16:50:23;;;;;;;1.57;1.40;;;5.20;99.90;;;;;;4973580;28;20209;-73
2023/02/06 16:52:54;;;;;;;2.37;1.80;;;5.20;99.90;;;;;;4980130;28;20284;-73
2023/02/06 16:55:24;;;;;;;2.27;1.83;;;5.30;99.90;;;;;;4981988;28;20224;-73